sensor_id;sensor_type;location;lat;lon;timestamp;P1;durP1;ratioP1;P2;durP2;ratioP2
25123;SDS011;13104;51.030;4.686;2022-08-19T00:00:53;26.15;;;20.00;;
25123;SDS011;13104;51.030;4.686;2022-08-19T00:03:19;26.33;;;20.02;;
25123;SDS011;13104;51.030;4.686;2022-08-19T00:05:45;26.52;;;19.70;;
25123;SDS011;13104;51.030;4.686;2022-08-19T00:08:11;24.38;;;19.45;;
25123;SDS011;13104;51.030;4.686;2022-08-19T00:10:38;22.98;;;19.83;;
25123;SDS011;13104;51.030;4.686;2022-08-19T00:13:04;24.15;;;20.25;;
25123;SDS011;13104;51.030;4.686;2022-08-19T00:15:30;24.02;;;19.88;;
25123;SDS011;13104;51.030;4.686;2022-08-19T00:17:56;26.02;;;22.20;;
25123;SDS011;13104;51.030;4.686;2022-08-19T00:20:22;27.05;;;21.27;;
25123;SDS011;13104;51.030;4.686;2022-08-19T00:22:48;26.70;;;22.50;;
25123;SDS011;13104;51.030;4.686;2022-08-19T00:25:15;31.30;;;24.00;;
25123;SDS011;13104;51.030;4.686;2022-08-19T00:27:41;29.55;;;23.75;;
25123;SDS011;13104;51.030;4.686;2022-08-19T00:30:07;30.48;;;24.88;;
25123;SDS011;13104;51.030;4.686;2022-08-19T00:32:35;33.25;;;24.98;;
25123;SDS011;13104;51.030;4.686;2022-08-19T00:35:01;31.42;;;25.90;;
25123;SDS011;13104;51.030;4.686;2022-08-19T00:37:27;32.17;;;26.17;;
25123;SDS011;13104;51.030;4.686;2022-08-19T00:39:54;33.45;;;25.33;;
25123;SDS011;13104;51.030;4.686;2022-08-19T00:42:21;29.58;;;24.52;;
25123;SDS011;13104;51.030;4.686;2022-08-19T00:44:47;32.95;;;25.70;;
25123;SDS011;13104;51.030;4.686;2022-08-19T00:47:15;35.30;;;25.65;;
25123;SDS011;13104;51.030;4.686;2022-08-19T00:49:43;32.03;;;25.98;;
25123;SDS011;13104;51.030;4.686;2022-08-19T00:52:13;30.70;;;23.63;;
25123;SDS011;13104;51.030;4.686;2022-08-19T00:54:40;34.28;;;27.52;;
25123;SDS011;13104;51.030;4.686;2022-08-19T00:57:09;40.20;;;29.65;;
25123;SDS011;13104;51.030;4.686;2022-08-19T00:59:38;37.88;;;28.00;;
25123;SDS011;13104;51.030;4.686;2022-08-19T01:02:05;34.65;;;28.25;;
25123;SDS011;13104;51.030;4.686;2022-08-19T01:04:31;39.88;;;29.73;;
25123;SDS011;13104;51.030;4.686;2022-08-19T01:06:58;40.17;;;29.17;;
25123;SDS011;13104;51.030;4.686;2022-08-19T01:09:24;37.30;;;28.65;;
25123;SDS011;13104;51.030;4.686;2022-08-19T01:11:50;43.03;;;30.08;;
25123;SDS011;13104;51.030;4.686;2022-08-19T01:14:17;42.58;;;30.13;;
25123;SDS011;13104;51.030;4.686;2022-08-19T01:16:43;45.38;;;30.75;;
25123;SDS011;13104;51.030;4.686;2022-08-19T01:19:12;44.53;;;31.55;;
25123;SDS011;13104;51.030;4.686;2022-08-19T01:21:42;47.13;;;32.90;;
25123;SDS011;13104;51.030;4.686;2022-08-19T01:24:09;45.83;;;32.42;;
25123;SDS011;13104;51.030;4.686;2022-08-19T01:26:40;45.65;;;32.03;;
25123;SDS011;13104;51.030;4.686;2022-08-19T01:29:08;48.47;;;33.03;;
25123;SDS011;13104;51.030;4.686;2022-08-19T01:31:35;46.42;;;33.47;;
25123;SDS011;13104;51.030;4.686;2022-08-19T01:34:02;49.75;;;34.30;;
25123;SDS011;13104;51.030;4.686;2022-08-19T01:36:33;47.22;;;34.13;;
25123;SDS011;13104;51.030;4.686;2022-08-19T01:39:00;49.42;;;34.08;;
25123;SDS011;13104;51.030;4.686;2022-08-19T01:41:26;47.78;;;33.53;;
25123;SDS011;13104;51.030;4.686;2022-08-19T01:43:53;51.35;;;32.88;;
25123;SDS011;13104;51.030;4.686;2022-08-19T01:46:19;50.90;;;34.80;;
25123;SDS011;13104;51.030;4.686;2022-08-19T01:48:45;51.20;;;35.55;;
25123;SDS011;13104;51.030;4.686;2022-08-19T01:51:12;51.40;;;36.90;;
25123;SDS011;13104;51.030;4.686;2022-08-19T01:53:38;57.22;;;37.47;;
25123;SDS011;13104;51.030;4.686;2022-08-19T01:56:05;65.32;;;40.53;;
25123;SDS011;13104;51.030;4.686;2022-08-19T01:58:34;63.22;;;39.85;;
25123;SDS011;13104;51.030;4.686;2022-08-19T02:01:01;62.35;;;40.05;;
25123;SDS011;13104;51.030;4.686;2022-08-19T02:03:27;60.90;;;39.65;;
25123;SDS011;13104;51.030;4.686;2022-08-19T02:05:57;61.95;;;39.17;;
25123;SDS011;13104;51.030;4.686;2022-08-19T02:08:25;60.00;;;38.55;;
25123;SDS011;13104;51.030;4.686;2022-08-19T02:10:51;66.38;;;41.60;;
25123;SDS011;13104;51.030;4.686;2022-08-19T02:13:17;64.18;;;41.65;;
25123;SDS011;13104;51.030;4.686;2022-08-19T02:15:43;65.10;;;40.03;;
25123;SDS011;13104;51.030;4.686;2022-08-19T02:18:09;69.07;;;41.30;;
25123;SDS011;13104;51.030;4.686;2022-08-19T02:20:36;66.38;;;42.72;;
25123;SDS011;13104;51.030;4.686;2022-08-19T02:23:03;68.00;;;40.75;;
25123;SDS011;13104;51.030;4.686;2022-08-19T02:25:29;62.47;;;40.00;;
25123;SDS011;13104;51.030;4.686;2022-08-19T02:27:55;65.55;;;40.45;;
25123;SDS011;13104;51.030;4.686;2022-08-19T02:30:22;69.68;;;42.53;;
25123;SDS011;13104;51.030;4.686;2022-08-19T02:32:49;68.97;;;42.33;;
25123;SDS011;13104;51.030;4.686;2022-08-19T02:35:16;68.75;;;42.20;;
25123;SDS011;13104;51.030;4.686;2022-08-19T02:37:42;68.43;;;42.30;;
25123;SDS011;13104;51.030;4.686;2022-08-19T02:42:53;71.78;;;42.63;;
25123;SDS011;13104;51.030;4.686;2022-08-19T02:45:19;74.10;;;44.13;;
25123;SDS011;13104;51.030;4.686;2022-08-19T02:47:46;70.15;;;43.75;;
25123;SDS011;13104;51.030;4.686;2022-08-19T02:50:12;71.07;;;43.97;;
25123;SDS011;13104;51.030;4.686;2022-08-19T02:52:39;74.22;;;45.05;;
25123;SDS011;13104;51.030;4.686;2022-08-19T02:55:06;76.72;;;45.22;;
25123;SDS011;13104;51.030;4.686;2022-08-19T02:57:32;67.57;;;42.00;;
25123;SDS011;13104;51.030;4.686;2022-08-19T02:59:59;65.65;;;42.10;;
25123;SDS011;13104;51.030;4.686;2022-08-19T03:02:26;77.65;;;45.45;;
25123;SDS011;13104;51.030;4.686;2022-08-19T03:04:52;70.15;;;42.40;;
25123;SDS011;13104;51.030;4.686;2022-08-19T03:07:18;70.60;;;43.85;;
25123;SDS011;13104;51.030;4.686;2022-08-19T03:09:44;69.35;;;42.58;;
25123;SDS011;13104;51.030;4.686;2022-08-19T03:12:10;72.38;;;44.58;;
25123;SDS011;13104;51.030;4.686;2022-08-19T03:14:37;75.90;;;46.78;;
25123;SDS011;13104;51.030;4.686;2022-08-19T03:17:03;78.60;;;45.97;;
25123;SDS011;13104;51.030;4.686;2022-08-19T03:19:29;86.20;;;46.80;;
25123;SDS011;13104;51.030;4.686;2022-08-19T03:21:56;90.00;;;49.47;;
25123;SDS011;13104;51.030;4.686;2022-08-19T03:24:23;81.72;;;49.33;;
25123;SDS011;13104;51.030;4.686;2022-08-19T03:26:51;91.30;;;50.72;;
25123;SDS011;13104;51.030;4.686;2022-08-19T03:29:18;88.28;;;49.47;;
25123;SDS011;13104;51.030;4.686;2022-08-19T03:31:44;88.43;;;50.00;;
25123;SDS011;13104;51.030;4.686;2022-08-19T03:34:12;85.63;;;49.88;;
25123;SDS011;13104;51.030;4.686;2022-08-19T03:36:39;98.63;;;50.95;;
25123;SDS011;13104;51.030;4.686;2022-08-19T03:39:05;92.20;;;50.33;;
25123;SDS011;13104;51.030;4.686;2022-08-19T03:41:39;99.15;;;52.50;;
25123;SDS011;13104;51.030;4.686;2022-08-19T03:44:05;86.90;;;49.90;;
25123;SDS011;13104;51.030;4.686;2022-08-19T03:46:33;84.28;;;48.75;;
25123;SDS011;13104;51.030;4.686;2022-08-19T03:49:01;93.57;;;48.78;;
25123;SDS011;13104;51.030;4.686;2022-08-19T03:51:37;91.13;;;51.15;;
25123;SDS011;13104;51.030;4.686;2022-08-19T03:54:05;86.00;;;49.08;;
25123;SDS011;13104;51.030;4.686;2022-08-19T03:56:33;92.97;;;51.13;;
25123;SDS011;13104;51.030;4.686;2022-08-19T03:58:59;88.72;;;48.17;;
25123;SDS011;13104;51.030;4.686;2022-08-19T04:01:27;87.80;;;48.70;;
25123;SDS011;13104;51.030;4.686;2022-08-19T04:03:53;86.70;;;46.85;;
25123;SDS011;13104;51.030;4.686;2022-08-19T04:06:20;86.10;;;47.33;;
25123;SDS011;13104;51.030;4.686;2022-08-19T04:08:48;81.10;;;46.20;;
25123;SDS011;13104;51.030;4.686;2022-08-19T04:11:16;87.80;;;47.53;;
25123;SDS011;13104;51.030;4.686;2022-08-19T04:13:43;81.45;;;45.33;;
25123;SDS011;13104;51.030;4.686;2022-08-19T04:16:09;82.47;;;45.00;;
25123;SDS011;13104;51.030;4.686;2022-08-19T04:18:36;78.63;;;44.83;;
25123;SDS011;13104;51.030;4.686;2022-08-19T04:21:03;82.78;;;45.70;;
25123;SDS011;13104;51.030;4.686;2022-08-19T04:23:30;76.85;;;43.33;;
25123;SDS011;13104;51.030;4.686;2022-08-19T04:25:56;78.68;;;44.28;;
25123;SDS011;13104;51.030;4.686;2022-08-19T04:28:23;78.18;;;43.60;;
25123;SDS011;13104;51.030;4.686;2022-08-19T04:30:50;75.47;;;43.22;;
25123;SDS011;13104;51.030;4.686;2022-08-19T04:33:18;74.70;;;41.80;;
25123;SDS011;13104;51.030;4.686;2022-08-19T04:35:46;76.28;;;41.72;;
25123;SDS011;13104;51.030;4.686;2022-08-19T04:38:13;71.25;;;40.25;;
25123;SDS011;13104;51.030;4.686;2022-08-19T04:40:40;73.10;;;41.17;;
25123;SDS011;13104;51.030;4.686;2022-08-19T04:43:25;64.97;;;38.50;;
25123;SDS011;13104;51.030;4.686;2022-08-19T04:45:51;68.95;;;39.15;;
25123;SDS011;13104;51.030;4.686;2022-08-19T04:48:17;73.18;;;40.15;;
25123;SDS011;13104;51.030;4.686;2022-08-19T04:50:51;65.47;;;38.40;;
25123;SDS011;13104;51.030;4.686;2022-08-19T04:53:22;66.35;;;38.25;;
25123;SDS011;13104;51.030;4.686;2022-08-19T04:55:48;68.45;;;37.30;;
25123;SDS011;13104;51.030;4.686;2022-08-19T04:58:14;66.25;;;37.15;;
25123;SDS011;13104;51.030;4.686;2022-08-19T05:00:42;64.38;;;36.55;;
25123;SDS011;13104;51.030;4.686;2022-08-19T05:03:09;66.95;;;36.50;;
25123;SDS011;13104;51.030;4.686;2022-08-19T05:05:41;76.13;;;38.03;;
25123;SDS011;13104;51.030;4.686;2022-08-19T05:08:07;66.85;;;34.30;;
25123;SDS011;13104;51.030;4.686;2022-08-19T05:10:37;63.78;;;35.13;;
25123;SDS011;13104;51.030;4.686;2022-08-19T05:13:04;62.08;;;35.33;;
25123;SDS011;13104;51.030;4.686;2022-08-19T05:15:30;66.40;;;36.30;;
25123;SDS011;13104;51.030;4.686;2022-08-19T05:17:56;63.13;;;33.10;;
25123;SDS011;13104;51.030;4.686;2022-08-19T05:20:41;59.20;;;34.92;;
25123;SDS011;13104;51.030;4.686;2022-08-19T05:23:26;63.47;;;33.45;;
25123;SDS011;13104;51.030;4.686;2022-08-19T05:25:52;56.55;;;32.70;;
25123;SDS011;13104;51.030;4.686;2022-08-19T05:28:19;63.10;;;34.08;;
25123;SDS011;13104;51.030;4.686;2022-08-19T05:30:45;56.28;;;32.38;;
25123;SDS011;13104;51.030;4.686;2022-08-19T05:33:13;59.90;;;31.85;;
25123;SDS011;13104;51.030;4.686;2022-08-19T05:35:39;56.97;;;30.65;;
25123;SDS011;13104;51.030;4.686;2022-08-19T05:38:06;51.90;;;30.75;;
25123;SDS011;13104;51.030;4.686;2022-08-19T05:40:34;54.40;;;31.33;;
25123;SDS011;13104;51.030;4.686;2022-08-19T05:43:01;53.90;;;29.58;;
25123;SDS011;13104;51.030;4.686;2022-08-19T05:45:27;46.08;;;27.38;;
25123;SDS011;13104;51.030;4.686;2022-08-19T05:47:53;48.78;;;28.33;;
25123;SDS011;13104;51.030;4.686;2022-08-19T05:50:20;49.78;;;28.60;;
25123;SDS011;13104;51.030;4.686;2022-08-19T05:52:46;47.20;;;28.25;;
25123;SDS011;13104;51.030;4.686;2022-08-19T05:55:12;50.63;;;28.20;;
25123;SDS011;13104;51.030;4.686;2022-08-19T05:57:38;43.08;;;25.90;;
25123;SDS011;13104;51.030;4.686;2022-08-19T06:00:05;51.25;;;25.67;;
25123;SDS011;13104;51.030;4.686;2022-08-19T06:02:36;41.72;;;25.00;;
25123;SDS011;13104;51.030;4.686;2022-08-19T06:05:03;46.75;;;24.48;;
25123;SDS011;13104;51.030;4.686;2022-08-19T06:07:30;46.80;;;25.42;;
25123;SDS011;13104;51.030;4.686;2022-08-19T06:09:57;46.78;;;23.75;;
25123;SDS011;13104;51.030;4.686;2022-08-19T06:12:23;40.45;;;23.30;;
25123;SDS011;13104;51.030;4.686;2022-08-19T06:14:55;45.70;;;22.35;;
25123;SDS011;13104;51.030;4.686;2022-08-19T06:17:22;38.92;;;21.45;;
25123;SDS011;13104;51.030;4.686;2022-08-19T06:19:50;35.10;;;21.55;;
25123;SDS011;13104;51.030;4.686;2022-08-19T06:22:16;38.88;;;20.73;;
25123;SDS011;13104;51.030;4.686;2022-08-19T06:24:42;35.28;;;19.98;;
25123;SDS011;13104;51.030;4.686;2022-08-19T06:27:08;34.58;;;19.67;;
25123;SDS011;13104;51.030;4.686;2022-08-19T06:29:35;36.40;;;18.65;;
25123;SDS011;13104;51.030;4.686;2022-08-19T06:32:01;34.90;;;17.95;;
25123;SDS011;13104;51.030;4.686;2022-08-19T06:34:29;32.90;;;18.25;;
25123;SDS011;13104;51.030;4.686;2022-08-19T06:36:56;34.90;;;17.48;;
25123;SDS011;13104;51.030;4.686;2022-08-19T06:39:27;35.65;;;17.90;;
25123;SDS011;13104;51.030;4.686;2022-08-19T06:41:55;26.77;;;16.30;;
25123;SDS011;13104;51.030;4.686;2022-08-19T06:44:23;28.83;;;15.77;;
25123;SDS011;13104;51.030;4.686;2022-08-19T06:46:51;23.88;;;15.15;;
25123;SDS011;13104;51.030;4.686;2022-08-19T06:49:17;24.48;;;14.30;;
25123;SDS011;13104;51.030;4.686;2022-08-19T06:51:44;24.33;;;13.68;;
25123;SDS011;13104;51.030;4.686;2022-08-19T06:54:12;25.27;;;13.15;;
25123;SDS011;13104;51.030;4.686;2022-08-19T06:56:38;20.63;;;12.98;;
25123;SDS011;13104;51.030;4.686;2022-08-19T06:59:08;23.67;;;12.10;;
25123;SDS011;13104;51.030;4.686;2022-08-19T07:01:39;23.05;;;12.68;;
25123;SDS011;13104;51.030;4.686;2022-08-19T07:04:06;21.80;;;12.30;;
25123;SDS011;13104;51.030;4.686;2022-08-19T07:06:33;28.20;;;12.35;;
25123;SDS011;13104;51.030;4.686;2022-08-19T07:09:00;20.88;;;12.85;;
25123;SDS011;13104;51.030;4.686;2022-08-19T07:11:26;20.92;;;12.18;;
25123;SDS011;13104;51.030;4.686;2022-08-19T07:13:52;20.33;;;11.50;;
25123;SDS011;13104;51.030;4.686;2022-08-19T07:16:19;21.15;;;12.02;;
25123;SDS011;13104;51.030;4.686;2022-08-19T07:18:48;22.52;;;12.68;;
25123;SDS011;13104;51.030;4.686;2022-08-19T07:21:25;23.50;;;12.07;;
25123;SDS011;13104;51.030;4.686;2022-08-19T07:23:53;19.92;;;11.38;;
25123;SDS011;13104;51.030;4.686;2022-08-19T07:26:35;25.23;;;12.13;;
25123;SDS011;13104;51.030;4.686;2022-08-19T07:29:12;21.50;;;10.90;;
25123;SDS011;13104;51.030;4.686;2022-08-19T07:31:55;20.08;;;11.55;;
25123;SDS011;13104;51.030;4.686;2022-08-19T07:35:08;17.58;;;10.27;;
25123;SDS011;13104;51.030;4.686;2022-08-19T07:37:36;17.35;;;10.45;;
25123;SDS011;13104;51.030;4.686;2022-08-19T07:40:06;18.35;;;10.40;;
25123;SDS011;13104;51.030;4.686;2022-08-19T07:42:37;22.90;;;10.82;;
25123;SDS011;13104;51.030;4.686;2022-08-19T07:48:29;17.70;;;10.45;;
25123;SDS011;13104;51.030;4.686;2022-08-19T07:51:09;20.88;;;11.15;;
25123;SDS011;13104;51.030;4.686;2022-08-19T07:56:38;22.80;;;9.90;;
25123;SDS011;13104;51.030;4.686;2022-08-19T08:00:14;18.67;;;10.05;;
25123;SDS011;13104;51.030;4.686;2022-08-19T08:02:29;15.48;;;9.63;;
25123;SDS011;13104;51.030;4.686;2022-08-19T08:04:58;16.30;;;9.48;;
25123;SDS011;13104;51.030;4.686;2022-08-19T08:07:43;20.55;;;9.95;;
25123;SDS011;13104;51.030;4.686;2022-08-19T08:13:39;14.48;;;9.48;;
25123;SDS011;13104;51.030;4.686;2022-08-19T08:16:15;18.35;;;9.82;;
25123;SDS011;13104;51.030;4.686;2022-08-19T08:21:44;14.38;;;8.82;;
25123;SDS011;13104;51.030;4.686;2022-08-19T08:24:10;18.23;;;10.43;;
25123;SDS011;13104;51.030;4.686;2022-08-19T08:26:37;16.25;;;10.05;;
25123;SDS011;13104;51.030;4.686;2022-08-19T08:29:03;15.68;;;9.27;;
25123;SDS011;13104;51.030;4.686;2022-08-19T08:31:29;17.08;;;10.00;;
25123;SDS011;13104;51.030;4.686;2022-08-19T08:33:55;16.08;;;9.60;;
25123;SDS011;13104;51.030;4.686;2022-08-19T08:36:21;14.50;;;9.02;;
25123;SDS011;13104;51.030;4.686;2022-08-19T08:38:49;13.50;;;9.23;;
25123;SDS011;13104;51.030;4.686;2022-08-19T08:43:49;18.58;;;9.13;;
25123;SDS011;13104;51.030;4.686;2022-08-19T08:46:21;11.55;;;8.20;;
25123;SDS011;13104;51.030;4.686;2022-08-19T08:51:17;12.98;;;7.97;;
25123;SDS011;13104;51.030;4.686;2022-08-19T08:53:44;13.98;;;7.90;;
25123;SDS011;13104;51.030;4.686;2022-08-19T08:56:12;17.35;;;8.57;;
25123;SDS011;13104;51.030;4.686;2022-08-19T08:58:47;14.63;;;8.07;;
25123;SDS011;13104;51.030;4.686;2022-08-19T09:01:15;13.02;;;7.20;;
25123;SDS011;13104;51.030;4.686;2022-08-19T09:03:41;12.52;;;7.00;;
25123;SDS011;13104;51.030;4.686;2022-08-19T09:09:03;12.93;;;6.90;;
25123;SDS011;13104;51.030;4.686;2022-08-19T09:14:28;11.57;;;6.80;;
25123;SDS011;13104;51.030;4.686;2022-08-19T09:16:57;11.45;;;6.30;;
25123;SDS011;13104;51.030;4.686;2022-08-19T09:19:23;11.25;;;5.60;;
25123;SDS011;13104;51.030;4.686;2022-08-19T09:21:56;8.95;;;5.63;;
25123;SDS011;13104;51.030;4.686;2022-08-19T09:24:22;9.85;;;5.22;;
25123;SDS011;13104;51.030;4.686;2022-08-19T09:26:51;12.35;;;5.13;;
25123;SDS011;13104;51.030;4.686;2022-08-19T09:29:18;11.25;;;5.47;;
25123;SDS011;13104;51.030;4.686;2022-08-19T09:31:45;6.40;;;5.05;;
25123;SDS011;13104;51.030;4.686;2022-08-19T09:34:11;11.82;;;5.82;;
25123;SDS011;13104;51.030;4.686;2022-08-19T09:36:37;12.15;;;5.25;;
25123;SDS011;13104;51.030;4.686;2022-08-19T09:39:04;7.90;;;4.30;;
25123;SDS011;13104;51.030;4.686;2022-08-19T09:41:31;13.45;;;5.13;;
25123;SDS011;13104;51.030;4.686;2022-08-19T09:43:57;13.82;;;5.43;;
25123;SDS011;13104;51.030;4.686;2022-08-19T09:46:25;10.00;;;4.40;;
25123;SDS011;13104;51.030;4.686;2022-08-19T09:48:51;9.45;;;4.90;;
25123;SDS011;13104;51.030;4.686;2022-08-19T09:51:19;10.75;;;5.22;;
25123;SDS011;13104;51.030;4.686;2022-08-19T09:53:46;10.65;;;5.40;;
25123;SDS011;13104;51.030;4.686;2022-08-19T09:56:15;7.45;;;4.78;;
25123;SDS011;13104;51.030;4.686;2022-08-19T09:58:41;13.25;;;5.18;;
25123;SDS011;13104;51.030;4.686;2022-08-19T10:01:08;9.55;;;4.65;;
25123;SDS011;13104;51.030;4.686;2022-08-19T10:03:35;8.77;;;4.82;;
25123;SDS011;13104;51.030;4.686;2022-08-19T10:06:03;11.73;;;5.72;;
25123;SDS011;13104;51.030;4.686;2022-08-19T10:08:31;15.57;;;5.70;;
25123;SDS011;13104;51.030;4.686;2022-08-19T10:10:58;7.78;;;5.15;;
25123;SDS011;13104;51.030;4.686;2022-08-19T10:13:27;10.32;;;5.40;;
25123;SDS011;13104;51.030;4.686;2022-08-19T10:15:54;11.20;;;5.20;;
25123;SDS011;13104;51.030;4.686;2022-08-19T10:18:21;9.02;;;5.22;;
25123;SDS011;13104;51.030;4.686;2022-08-19T10:20:48;10.15;;;4.60;;
25123;SDS011;13104;51.030;4.686;2022-08-19T10:23:14;9.35;;;5.03;;
25123;SDS011;13104;51.030;4.686;2022-08-19T10:25:41;10.52;;;5.65;;
25123;SDS011;13104;51.030;4.686;2022-08-19T10:28:08;10.63;;;5.68;;
25123;SDS011;13104;51.030;4.686;2022-08-19T10:30:37;9.35;;;5.93;;
25123;SDS011;13104;51.030;4.686;2022-08-19T10:33:03;8.63;;;4.90;;
25123;SDS011;13104;51.030;4.686;2022-08-19T10:35:29;11.38;;;5.75;;
25123;SDS011;13104;51.030;4.686;2022-08-19T10:37:56;10.43;;;5.57;;
25123;SDS011;13104;51.030;4.686;2022-08-19T10:40:27;14.63;;;6.35;;
25123;SDS011;13104;51.030;4.686;2022-08-19T10:42:53;10.50;;;5.75;;
25123;SDS011;13104;51.030;4.686;2022-08-19T10:45:20;9.52;;;4.93;;
25123;SDS011;13104;51.030;4.686;2022-08-19T10:47:48;13.80;;;5.53;;
25123;SDS011;13104;51.030;4.686;2022-08-19T10:50:14;14.07;;;5.85;;
25123;SDS011;13104;51.030;4.686;2022-08-19T10:53:03;10.60;;;4.93;;
25123;SDS011;13104;51.030;4.686;2022-08-19T10:55:29;10.70;;;5.40;;
25123;SDS011;13104;51.030;4.686;2022-08-19T10:58:14;10.20;;;5.43;;
25123;SDS011;13104;51.030;4.686;2022-08-19T11:00:41;12.52;;;5.90;;
25123;SDS011;13104;51.030;4.686;2022-08-19T11:03:08;8.20;;;4.85;;
25123;SDS011;13104;51.030;4.686;2022-08-19T11:05:34;11.40;;;4.97;;
25123;SDS011;13104;51.030;4.686;2022-08-19T11:08:02;9.38;;;5.25;;
25123;SDS011;13104;51.030;4.686;2022-08-19T11:10:28;7.55;;;4.78;;
25123;SDS011;13104;51.030;4.686;2022-08-19T11:12:54;8.60;;;5.00;;
25123;SDS011;13104;51.030;4.686;2022-08-19T11:15:21;7.72;;;4.65;;
25123;SDS011;13104;51.030;4.686;2022-08-19T11:17:47;7.18;;;4.63;;
25123;SDS011;13104;51.030;4.686;2022-08-19T11:20:13;10.25;;;4.53;;
25123;SDS011;13104;51.030;4.686;2022-08-19T11:22:40;7.10;;;4.53;;
25123;SDS011;13104;51.030;4.686;2022-08-19T11:25:07;12.88;;;5.10;;
25123;SDS011;13104;51.030;4.686;2022-08-19T11:27:37;9.05;;;4.72;;
25123;SDS011;13104;51.030;4.686;2022-08-19T11:30:04;9.20;;;5.28;;
25123;SDS011;13104;51.030;4.686;2022-08-19T11:32:32;7.97;;;5.03;;
25123;SDS011;13104;51.030;4.686;2022-08-19T11:34:58;10.27;;;4.43;;
25123;SDS011;13104;51.030;4.686;2022-08-19T11:37:24;7.78;;;4.20;;
25123;SDS011;13104;51.030;4.686;2022-08-19T11:39:51;7.47;;;4.15;;
25123;SDS011;13104;51.030;4.686;2022-08-19T11:42:18;6.30;;;4.25;;
25123;SDS011;13104;51.030;4.686;2022-08-19T11:45:03;7.85;;;4.20;;
25123;SDS011;13104;51.030;4.686;2022-08-19T11:47:29;7.57;;;4.88;;
25123;SDS011;13104;51.030;4.686;2022-08-19T11:49:55;7.93;;;4.13;;
25123;SDS011;13104;51.030;4.686;2022-08-19T11:52:22;7.38;;;4.10;;
25123;SDS011;13104;51.030;4.686;2022-08-19T11:54:48;7.55;;;4.22;;
25123;SDS011;13104;51.030;4.686;2022-08-19T11:57:14;5.55;;;3.88;;
25123;SDS011;13104;51.030;4.686;2022-08-19T11:59:42;11.00;;;4.05;;
25123;SDS011;13104;51.030;4.686;2022-08-19T12:02:08;6.68;;;4.35;;
25123;SDS011;13104;51.030;4.686;2022-08-19T12:04:35;7.13;;;4.25;;
25123;SDS011;13104;51.030;4.686;2022-08-19T12:07:01;9.55;;;4.60;;
25123;SDS011;13104;51.030;4.686;2022-08-19T12:09:28;9.63;;;3.90;;
25123;SDS011;13104;51.030;4.686;2022-08-19T12:11:54;5.13;;;4.07;;
25123;SDS011;13104;51.030;4.686;2022-08-19T12:14:21;4.95;;;3.63;;
25123;SDS011;13104;51.030;4.686;2022-08-19T12:16:48;4.90;;;3.88;;
25123;SDS011;13104;51.030;4.686;2022-08-19T12:19:14;6.90;;;4.30;;
25123;SDS011;13104;51.030;4.686;2022-08-19T12:21:40;7.43;;;4.18;;
25123;SDS011;13104;51.030;4.686;2022-08-19T12:24:07;7.97;;;4.88;;
25123;SDS011;13104;51.030;4.686;2022-08-19T12:26:33;8.88;;;3.95;;
25123;SDS011;13104;51.030;4.686;2022-08-19T12:28:59;5.70;;;4.18;;
25123;SDS011;13104;51.030;4.686;2022-08-19T12:31:26;6.32;;;3.88;;
25123;SDS011;13104;51.030;4.686;2022-08-19T12:33:53;10.68;;;3.83;;
25123;SDS011;13104;51.030;4.686;2022-08-19T12:36:19;4.15;;;3.38;;
25123;SDS011;13104;51.030;4.686;2022-08-19T12:38:46;5.35;;;2.90;;
25123;SDS011;13104;51.030;4.686;2022-08-19T12:41:14;3.85;;;2.78;;
25123;SDS011;13104;51.030;4.686;2022-08-19T12:43:42;4.78;;;2.88;;
25123;SDS011;13104;51.030;4.686;2022-08-19T12:46:08;8.73;;;2.80;;
25123;SDS011;13104;51.030;4.686;2022-08-19T12:48:34;4.20;;;2.92;;
25123;SDS011;13104;51.030;4.686;2022-08-19T12:51:05;5.05;;;2.67;;
25123;SDS011;13104;51.030;4.686;2022-08-19T12:53:32;6.93;;;2.97;;
25123;SDS011;13104;51.030;4.686;2022-08-19T12:55:58;4.35;;;2.60;;
25123;SDS011;13104;51.030;4.686;2022-08-19T12:58:25;5.47;;;2.65;;
25123;SDS011;13104;51.030;4.686;2022-08-19T13:00:51;7.65;;;3.03;;
25123;SDS011;13104;51.030;4.686;2022-08-19T13:03:18;3.20;;;2.50;;
25123;SDS011;13104;51.030;4.686;2022-08-19T13:05:44;11.23;;;3.28;;
25123;SDS011;13104;51.030;4.686;2022-08-19T13:08:10;7.38;;;3.53;;
25123;SDS011;13104;51.030;4.686;2022-08-19T13:10:36;10.35;;;3.38;;
25123;SDS011;13104;51.030;4.686;2022-08-19T13:13:06;8.07;;;3.40;;
25123;SDS011;13104;51.030;4.686;2022-08-19T13:15:38;5.00;;;3.55;;
25123;SDS011;13104;51.030;4.686;2022-08-19T13:18:05;8.75;;;4.32;;
25123;SDS011;13104;51.030;4.686;2022-08-19T13:20:31;10.82;;;4.45;;
25123;SDS011;13104;51.030;4.686;2022-08-19T13:22:57;7.60;;;4.20;;
25123;SDS011;13104;51.030;4.686;2022-08-19T13:25:23;10.13;;;3.85;;
25123;SDS011;13104;51.030;4.686;2022-08-19T13:27:50;9.98;;;4.38;;
25123;SDS011;13104;51.030;4.686;2022-08-19T13:30:17;6.10;;;4.43;;
25123;SDS011;13104;51.030;4.686;2022-08-19T13:33:02;8.85;;;5.05;;
25123;SDS011;13104;51.030;4.686;2022-08-19T13:35:46;11.52;;;5.05;;
25123;SDS011;13104;51.030;4.686;2022-08-19T13:38:13;7.37;;;4.20;;
25123;SDS011;13104;51.030;4.686;2022-08-19T13:40:40;6.32;;;4.32;;
25123;SDS011;13104;51.030;4.686;2022-08-19T13:43:07;5.15;;;4.30;;
25123;SDS011;13104;51.030;4.686;2022-08-19T13:45:34;9.02;;;3.97;;
25123;SDS011;13104;51.030;4.686;2022-08-19T13:48:01;5.90;;;4.03;;
25123;SDS011;13104;51.030;4.686;2022-08-19T13:50:31;6.20;;;3.78;;
25123;SDS011;13104;51.030;4.686;2022-08-19T13:52:58;9.30;;;4.32;;
25123;SDS011;13104;51.030;4.686;2022-08-19T13:55:24;6.28;;;3.85;;
25123;SDS011;13104;51.030;4.686;2022-08-19T13:57:55;4.78;;;3.90;;
25123;SDS011;13104;51.030;4.686;2022-08-19T14:00:22;6.72;;;4.35;;
25123;SDS011;13104;51.030;4.686;2022-08-19T14:02:50;5.95;;;3.72;;
25123;SDS011;13104;51.030;4.686;2022-08-19T14:05:17;4.22;;;3.83;;
25123;SDS011;13104;51.030;4.686;2022-08-19T14:07:43;8.57;;;4.45;;
25123;SDS011;13104;51.030;4.686;2022-08-19T14:10:10;8.55;;;4.25;;
25123;SDS011;13104;51.030;4.686;2022-08-19T14:12:37;4.13;;;3.10;;
25123;SDS011;13104;51.030;4.686;2022-08-19T14:15:04;3.75;;;2.95;;
25123;SDS011;13104;51.030;4.686;2022-08-19T14:17:31;6.40;;;3.28;;
25123;SDS011;13104;51.030;4.686;2022-08-19T14:20:09;3.85;;;2.42;;
25123;SDS011;13104;51.030;4.686;2022-08-19T14:22:37;3.35;;;1.90;;
25123;SDS011;13104;51.030;4.686;2022-08-19T14:25:07;7.03;;;1.77;;
25123;SDS011;13104;51.030;4.686;2022-08-19T14:27:38;3.20;;;1.58;;
25123;SDS011;13104;51.030;4.686;2022-08-19T14:30:08;2.20;;;1.50;;
25123;SDS011;13104;51.030;4.686;2022-08-19T14:32:35;3.33;;;2.08;;
25123;SDS011;13104;51.030;4.686;2022-08-19T14:35:02;2.63;;;1.70;;
25123;SDS011;13104;51.030;4.686;2022-08-19T14:37:28;5.18;;;2.13;;
25123;SDS011;13104;51.030;4.686;2022-08-19T14:39:54;3.40;;;1.95;;
25123;SDS011;13104;51.030;4.686;2022-08-19T14:42:20;2.67;;;1.80;;
25123;SDS011;13104;51.030;4.686;2022-08-19T14:44:46;9.27;;;2.08;;
25123;SDS011;13104;51.030;4.686;2022-08-19T14:47:12;3.72;;;1.80;;
25123;SDS011;13104;51.030;4.686;2022-08-19T14:49:38;6.05;;;1.75;;
25123;SDS011;13104;51.030;4.686;2022-08-19T14:52:04;4.20;;;1.45;;
25123;SDS011;13104;51.030;4.686;2022-08-19T14:54:31;4.53;;;1.33;;
25123;SDS011;13104;51.030;4.686;2022-08-19T14:56:57;3.30;;;1.10;;
25123;SDS011;13104;51.030;4.686;2022-08-19T14:59:23;4.40;;;1.40;;
25123;SDS011;13104;51.030;4.686;2022-08-19T15:01:49;2.05;;;1.40;;